createdAt,value
2017-05-15T00:01:24.171Z,96.00
2017-05-15T00:03:52.446Z,96.00
2017-05-15T00:06:20.720Z,96.10
2017-05-15T00:08:49.396Z,96.00
2017-05-15T00:11:18.414Z,96.00
2017-05-15T00:13:46.691Z,96.00
2017-05-15T00:16:15.284Z,96.40
2017-05-15T00:18:43.567Z,96.50
2017-05-15T00:21:12.579Z,96.60
2017-05-15T00:23:41.185Z,96.50
2017-05-15T00:26:09.471Z,96.40
2017-05-15T00:28:38.486Z,96.50
2017-05-15T00:31:07.191Z,96.50
2017-05-15T00:33:35.468Z,96.50
2017-05-15T00:36:03.741Z,96.40
2017-05-15T00:38:32.385Z,96.30
2017-05-15T00:41:00.666Z,96.20
2017-05-15T00:43:28.947Z,96.20
2017-05-15T00:45:58.292Z,96.00
2017-05-15T00:48:26.565Z,96.10
2017-05-15T00:50:54.850Z,96.00
2017-05-15T00:53:24.208Z,96.00
2017-05-15T00:55:52.483Z,96.00
2017-05-15T00:58:20.759Z,96.00
2017-05-15T01:00:50.115Z,95.90
2017-05-15T01:03:18.398Z,95.90
2017-05-15T01:05:46.675Z,95.80
2017-05-15T01:08:15.972Z,95.70
2017-05-15T01:10:44.251Z,95.70
2017-05-15T01:13:12.523Z,95.70
2017-05-15T01:15:41.106Z,95.50
2017-05-15T01:18:09.382Z,95.70
2017-05-15T01:20:37.655Z,95.60
2017-05-15T01:23:07.018Z,96.00
2017-05-15T01:25:35.383Z,95.70
2017-05-15T01:28:03.666Z,95.70
2017-05-15T01:30:33.025Z,95.70
2017-05-15T01:33:01.308Z,95.70
2017-05-15T01:35:29.599Z,95.70
2017-05-15T01:37:58.219Z,95.70
2017-05-15T01:40:26.499Z,95.80
2017-05-15T01:42:54.775Z,95.80
2017-05-15T01:45:24.131Z,95.80
2017-05-15T01:47:52.418Z,95.90
2017-05-15T01:50:21.443Z,95.90
2017-05-15T01:52:50.132Z,95.90
2017-05-15T01:55:18.410Z,96.00
2017-05-15T01:57:46.702Z,95.90
2017-05-15T02:00:15.333Z,95.90
2017-05-15T02:02:43.620Z,96.10
2017-05-15T02:05:12.649Z,96.10
2017-05-15T02:07:41.243Z,96.20
2017-05-15T02:10:09.516Z,96.10
2017-05-15T02:12:37.792Z,96.10
2017-05-15T02:15:07.111Z,96.10
2017-05-15T02:17:35.375Z,96.00
2017-05-15T02:20:03.647Z,96.10
2017-05-15T02:22:32.235Z,96.10
2017-05-15T02:25:00.568Z,96.10
2017-05-15T02:27:28.852Z,96.10
2017-05-15T02:29:57.416Z,96.00
2017-05-15T02:32:25.691Z,95.90
2017-05-15T02:34:53.967Z,95.70
2017-05-15T02:37:23.319Z,96.20
2017-05-15T02:39:51.596Z,95.80
2017-05-15T02:42:19.868Z,95.90
2017-05-15T02:44:48.515Z,95.90
2017-05-15T02:47:16.787Z,95.90
2017-05-15T02:49:45.067Z,96.00
2017-05-15T02:52:14.439Z,96.00
2017-05-15T02:54:42.723Z,96.00
2017-05-15T02:57:11.745Z,96.00
2017-05-15T02:59:40.332Z,96.00
2017-05-15T03:02:08.609Z,96.00
2017-05-15T03:04:36.886Z,96.00
2017-05-15T03:07:06.269Z,96.00
2017-05-15T03:09:35.301Z,96.00
2017-05-15T03:12:03.579Z,96.10
2017-05-15T03:14:32.247Z,96.10
2017-05-15T03:17:00.527Z,96.10
2017-05-15T03:19:28.798Z,96.10
2017-05-15T03:21:57.452Z,96.00
2017-05-15T03:24:25.741Z,95.90
2017-05-15T03:26:54.776Z,95.90
2017-05-15T03:29:23.360Z,95.80
2017-05-15T03:31:51.665Z,95.70
2017-05-15T03:34:19.956Z,95.80
2017-05-15T03:36:48.535Z,95.80
2017-05-15T03:39:16.810Z,95.80
2017-05-15T03:41:45.092Z,95.90
2017-05-15T03:44:13.747Z,95.80
2017-05-15T03:46:42.024Z,95.80
2017-05-15T03:49:11.049Z,95.80
2017-05-15T03:51:39.660Z,95.70
2017-05-15T03:54:07.931Z,95.70
2017-05-15T03:56:36.951Z,96.10
2017-05-15T03:59:05.548Z,95.70
2017-05-15T04:01:33.921Z,95.60
2017-05-15T04:04:02.212Z,95.50
2017-05-15T04:06:31.568Z,95.50
2017-05-15T04:08:59.863Z,95.50
2017-05-15T04:11:28.876Z,95.50
2017-05-15T04:13:57.460Z,95.50
2017-05-15T04:16:25.749Z,95.40
2017-05-15T04:18:54.036Z,95.40
2017-05-15T04:21:22.660Z,95.40
2017-05-15T04:23:50.950Z,95.40
2017-05-15T04:26:19.993Z,95.50
2017-05-15T04:28:48.579Z,95.30
2017-05-15T04:31:16.855Z,95.20
2017-05-15T04:33:45.933Z,95.10
2017-05-15T04:36:14.595Z,94.80
2017-05-15T04:38:42.890Z,94.50
2017-05-15T04:41:11.180Z,94.10
2017-05-15T04:43:39.793Z,94.00
2017-05-15T04:46:08.107Z,93.80
2017-05-15T04:48:36.424Z,93.90
2017-05-15T04:51:05.719Z,93.70
2017-05-15T04:53:34.743Z,93.40
2017-05-15T04:56:03.030Z,93.40
2017-05-15T04:58:31.609Z,93.20
2017-05-15T05:00:59.884Z,93.20
2017-05-15T05:03:28.910Z,93.00
2017-05-15T05:05:57.499Z,93.20
2017-05-15T05:08:25.782Z,93.00
2017-05-15T05:10:54.800Z,93.00
2017-05-15T05:13:23.389Z,93.10
2017-05-15T05:15:51.685Z,93.10
2017-05-15T05:18:20.711Z,93.20
2017-05-15T05:21:00.985Z,93.20
2017-05-15T05:23:41.052Z,93.30
2017-05-15T05:26:22.131Z,93.10
2017-05-15T05:29:14.153Z,92.80
2017-05-15T05:31:54.665Z,92.70
2017-05-15T05:34:44.248Z,92.40
2017-05-15T05:37:33.557Z,92.10
2017-05-15T05:40:05.636Z,91.70
2017-05-15T05:42:57.624Z,91.50
2017-05-15T05:45:26.670Z,91.40
2017-05-15T05:47:54.963Z,91.00
2017-05-15T05:50:23.532Z,90.70
2017-05-15T05:52:51.833Z,90.80
2017-05-15T05:55:32.763Z,90.60
2017-05-15T05:58:01.055Z,90.40
2017-05-15T06:00:41.577Z,90.40
2017-05-15T06:03:21.721Z,90.40
2017-05-15T06:06:18.016Z,90.50
2017-05-15T06:08:58.078Z,90.10
2017-05-15T06:11:47.503Z,89.70
2017-05-15T06:14:27.547Z,89.20
2017-05-15T06:17:21.710Z,88.90
2017-05-15T06:19:49.495Z,89.20
2017-05-15T06:22:29.810Z,88.60
2017-05-15T06:25:10.676Z,88.70
2017-05-15T06:27:39.276Z,89.00
2017-05-15T06:30:07.565Z,88.30
2017-05-15T06:32:35.862Z,87.60
2017-05-15T06:35:05.203Z,85.80
2017-05-15T06:37:39.492Z,85.60
2017-05-15T06:40:20.128Z,84.50
2017-05-15T06:42:48.416Z,83.50
2017-05-15T06:45:16.709Z,83.00
2017-05-15T06:47:45.312Z,81.50
2017-05-15T06:50:13.607Z,78.60
2017-05-15T06:52:41.906Z,78.60
2017-05-15T06:55:11.272Z,77.50
2017-05-15T06:57:39.560Z,76.90
2017-05-15T07:00:08.585Z,77.70
2017-05-15T07:02:37.173Z,77.70
2017-05-15T07:05:05.476Z,76.70
2017-05-15T07:07:34.014Z,76.30
2017-05-15T07:10:02.679Z,75.10
2017-05-15T07:12:30.965Z,74.10
2017-05-15T07:15:00.006Z,72.90
2017-05-15T07:17:28.686Z,72.80
2017-05-15T07:19:56.968Z,73.00
2017-05-15T07:22:26.003Z,73.60
2017-05-15T07:24:54.707Z,72.00
2017-05-15T07:27:23.016Z,70.90
2017-05-15T07:29:51.335Z,71.30
2017-05-15T07:32:19.907Z,71.60
2017-05-15T07:34:48.247Z,70.60
2017-05-15T07:37:16.535Z,70.40
2017-05-15T07:39:45.912Z,71.20
2017-05-15T07:42:14.212Z,70.00
2017-05-15T07:44:42.540Z,69.30
2017-05-15T07:47:11.234Z,66.90
2017-05-15T07:49:39.514Z,68.10
2017-05-15T07:52:07.787Z,65.30
2017-05-15T07:54:36.387Z,64.80
2017-05-15T07:57:04.677Z,64.20
2017-05-15T07:59:33.715Z,61.50
2017-05-15T08:02:02.296Z,59.60
2017-05-15T08:04:30.588Z,58.20
2017-05-15T08:06:59.628Z,58.30
2017-05-15T08:09:28.223Z,56.90
2017-05-15T08:11:57.252Z,56.10
2017-05-15T08:14:25.567Z,54.10
2017-05-15T08:16:54.940Z,53.80
2017-05-15T08:19:23.218Z,51.50
2017-05-15T08:21:51.520Z,52.20
2017-05-15T08:24:20.126Z,48.10
2017-05-15T08:26:48.417Z,41.40
2017-05-15T08:29:17.436Z,38.70
2017-05-15T08:31:46.010Z,38.80
2017-05-15T08:34:14.292Z,36.50
2017-05-15T08:36:42.615Z,34.70
2017-05-15T08:39:11.245Z,32.10
2017-05-15T08:41:40.264Z,29.80
2017-05-15T08:44:08.564Z,28.20
2017-05-15T08:46:37.232Z,26.20
2017-05-15T08:49:05.507Z,24.50
2017-05-15T08:51:34.667Z,24.40
2017-05-15T08:54:03.230Z,24.20
2017-05-15T08:56:31.507Z,23.20
2017-05-15T08:58:59.803Z,24.50
2017-05-15T09:01:28.424Z,23.50
2017-05-15T09:03:56.704Z,22.00
2017-05-15T09:06:25.732Z,23.20
2017-05-15T09:08:54.337Z,25.50
2017-05-15T09:11:22.671Z,25.90
2017-05-15T09:13:50.980Z,27.10
2017-05-15T09:16:19.700Z,29.40
2017-05-15T09:18:48.158Z,28.50
2017-05-15T09:21:16.448Z,27.90
2017-05-15T09:23:45.027Z,27.60
2017-05-15T09:26:13.322Z,25.60
2017-05-15T09:28:42.340Z,23.50
2017-05-15T09:31:10.944Z,21.60
2017-05-15T09:33:39.214Z,21.20
2017-05-15T09:36:08.254Z,21.20
2017-05-15T09:38:36.942Z,20.00
2017-05-15T09:41:05.233Z,20.30
2017-05-15T09:43:34.250Z,20.80
2017-05-15T09:46:02.852Z,20.90
2017-05-15T09:48:31.139Z,19.90
2017-05-15T09:51:00.196Z,20.00
2017-05-15T09:53:28.873Z,19.60
2017-05-15T09:55:57.154Z,20.40
2017-05-15T09:58:26.189Z,19.90
2017-05-15T10:00:54.775Z,19.60
2017-05-15T10:03:23.068Z,20.60
2017-05-15T10:05:52.089Z,19.90
2017-05-15T10:08:20.730Z,21.20
2017-05-15T10:10:49.004Z,21.30
2017-05-15T10:13:17.301Z,21.70
2017-05-15T10:15:45.990Z,22.30
2017-05-15T10:18:15.018Z,21.30
2017-05-15T10:20:43.304Z,21.80
2017-05-15T10:23:11.896Z,23.90
2017-05-15T10:25:40.927Z,26.70
2017-05-15T10:28:09.209Z,28.20
2017-05-15T10:30:37.802Z,30.00
2017-05-15T10:33:06.087Z,32.50
2017-05-15T10:35:35.106Z,36.80
2017-05-15T10:38:03.689Z,40.10
2017-05-15T10:40:31.991Z,41.10
2017-05-15T10:43:00.289Z,42.50
2017-05-15T10:45:28.894Z,41.20
2017-05-15T10:47:57.184Z,36.20
2017-05-15T10:50:26.208Z,31.90
2017-05-15T10:52:54.801Z,29.00
2017-05-15T10:55:23.095Z,27.80
2017-05-15T10:57:52.113Z,26.70
2017-05-15T11:00:20.711Z,26.30
2017-05-15T11:02:49.006Z,25.40
2017-05-15T11:05:17.282Z,28.30
2017-05-15T11:07:45.897Z,28.80
2017-05-15T11:10:14.187Z,31.20
2017-05-15T11:12:43.201Z,34.20
2017-05-15T11:15:11.804Z,37.40
2017-05-15T11:17:40.080Z,40.80
2017-05-15T11:20:08.422Z,44.10
2017-05-15T11:22:37.107Z,47.70
2017-05-15T11:25:05.396Z,50.60
2017-05-15T11:27:33.677Z,53.30
2017-05-15T11:30:02.291Z,54.00
2017-05-15T11:32:30.592Z,51.30
2017-05-15T11:34:58.876Z,43.80
2017-05-15T11:37:27.479Z,38.70
2017-05-15T11:39:55.764Z,34.40
2017-05-15T11:42:24.797Z,34.50
2017-05-15T11:44:53.384Z,38.20
2017-05-15T11:47:21.675Z,42.30
2017-05-15T11:49:50.705Z,45.30
2017-05-15T11:52:19.421Z,47.20
2017-05-15T11:54:48.435Z,50.90
2017-05-15T11:57:16.712Z,53.40
2017-05-15T11:59:45.416Z,55.60
2017-05-15T12:02:13.700Z,56.30
2017-05-15T12:04:42.720Z,57.20
2017-05-15T12:07:11.317Z,58.60
2017-05-15T12:09:39.610Z,58.60
2017-05-15T12:12:07.900Z,58.90
2017-05-15T12:14:36.515Z,57.70
2017-05-15T12:17:04.811Z,56.00
2017-05-15T12:19:33.106Z,55.40
2017-05-15T12:22:01.808Z,53.10
2017-05-15T12:24:30.106Z,49.20
2017-05-15T12:26:58.388Z,42.00
2017-05-15T12:29:27.622Z,39.00
2017-05-15T12:31:56.698Z,37.90
2017-05-15T12:34:25.149Z,38.60
2017-05-15T12:36:55.289Z,40.90
2017-05-15T12:39:24.331Z,43.10
2017-05-15T12:41:52.621Z,43.30
2017-05-15T12:44:21.984Z,42.80
2017-05-15T12:46:50.264Z,38.80
2017-05-15T12:49:19.296Z,35.00
2017-05-15T12:51:47.867Z,33.00
2017-05-15T12:54:16.151Z,31.80
2017-05-15T12:56:44.450Z,30.20
2017-05-15T12:59:13.028Z,30.30
2017-05-15T13:01:41.325Z,29.20
2017-05-15T13:04:09.603Z,28.90
2017-05-15T13:06:38.271Z,28.30
2017-05-15T13:09:06.561Z,28.20
2017-05-15T13:11:35.584Z,28.90
2017-05-15T13:14:04.183Z,30.00
2017-05-15T13:16:32.464Z,31.70
2017-05-15T13:19:06.653Z,33.30
2017-05-15T13:21:35.713Z,35.50
2017-05-15T13:24:03.999Z,34.20
2017-05-15T13:26:32.664Z,32.30
2017-05-15T13:29:01.695Z,31.00
2017-05-15T13:31:29.974Z,28.90
2017-05-15T13:33:58.660Z,28.20
2017-05-15T13:36:26.936Z,26.40
2017-05-15T13:38:55.966Z,26.50
2017-05-15T13:41:24.571Z,26.30
2017-05-15T13:43:52.870Z,26.70
2017-05-15T13:46:21.195Z,26.70
2017-05-15T13:48:49.906Z,25.90
2017-05-15T13:51:18.202Z,25.50
2017-05-15T13:53:46.485Z,24.00
2017-05-15T13:59:07.227Z,23.40
2017-05-15T14:01:35.508Z,23.40
2017-05-15T14:04:03.797Z,23.50
2017-05-15T14:06:32.460Z,23.70
2017-05-15T14:09:00.744Z,23.20
2017-05-15T14:11:29.781Z,23.40
2017-05-15T14:13:58.364Z,23.10
2017-05-15T14:16:26.664Z,24.60
2017-05-15T14:18:54.944Z,24.90
2017-05-15T14:21:23.575Z,25.00
2017-05-15T14:23:51.864Z,24.90
2017-05-15T14:26:20.138Z,26.30
2017-05-15T14:28:48.756Z,27.60
2017-05-15T14:31:17.031Z,29.20
2017-05-15T14:33:45.309Z,30.10
2017-05-15T14:36:14.652Z,30.90
2017-05-15T14:38:42.936Z,31.80
2017-05-15T14:41:11.227Z,32.00
2017-05-15T14:43:39.854Z,32.20
2017-05-15T14:46:08.137Z,32.50
2017-05-15T14:48:36.427Z,32.70
2017-05-15T14:51:05.097Z,32.20
2017-05-15T14:53:33.385Z,32.20
2017-05-15T14:56:01.685Z,31.00
2017-05-15T14:58:31.054Z,31.40
2017-05-15T15:00:59.355Z,32.60
2017-05-15T15:03:27.647Z,33.20
2017-05-15T15:05:56.229Z,33.80
2017-05-15T15:08:24.542Z,35.00
2017-05-15T15:10:52.887Z,35.50
2017-05-15T15:13:22.351Z,36.60
2017-05-15T15:15:51.644Z,37.00
2017-05-15T15:18:19.971Z,37.10
2017-05-15T15:20:48.583Z,37.80
2017-05-15T15:23:16.854Z,38.30
2017-05-15T15:25:45.883Z,37.50
2017-05-15T15:28:14.536Z,37.20
2017-05-15T15:30:42.867Z,37.40
2017-05-15T15:33:11.905Z,37.30
2017-05-15T15:35:40.504Z,38.20
2017-05-15T15:38:09.542Z,39.80
2017-05-15T15:40:37.847Z,39.00
2017-05-15T15:43:06.566Z,39.20
2017-05-15T15:45:34.852Z,38.70
2017-05-15T15:48:03.697Z,38.10
2017-05-15T15:50:32.304Z,38.50
2017-05-15T15:53:00.581Z,38.40
2017-05-15T15:55:28.862Z,39.40
2017-05-15T15:57:57.503Z,39.90
2017-05-15T16:00:25.789Z,43.70
2017-05-15T16:02:54.811Z,40.90
2017-05-15T16:05:23.397Z,41.30
2017-05-15T16:07:51.686Z,41.80
2017-05-15T16:10:20.731Z,41.80
2017-05-15T16:12:49.333Z,41.80
2017-05-15T16:17:47.238Z,41.80
2017-05-15T16:20:15.851Z,42.20
2017-05-15T16:22:44.137Z,42.30
2017-05-15T16:25:12.427Z,42.90
2017-05-15T16:27:41.034Z,42.60
2017-05-15T16:30:09.333Z,42.60
2017-05-15T16:32:37.635Z,42.70
2017-05-15T16:35:06.238Z,43.60
2017-05-15T16:37:34.567Z,43.30
2017-05-15T16:40:02.916Z,43.20
2017-05-15T16:42:31.869Z,42.90
2017-05-15T16:45:00.194Z,43.20
2017-05-15T16:47:28.500Z,43.00
2017-05-15T16:49:57.128Z,42.90
2017-05-15T16:52:25.498Z,43.30
2017-05-15T16:54:54.610Z,43.80
2017-05-15T16:57:23.231Z,44.20
2017-05-15T16:59:51.560Z,44.30
2017-05-15T17:02:19.877Z,45.00
2017-05-15T17:04:48.857Z,45.50
2017-05-15T17:07:17.246Z,45.80
2017-05-15T17:09:45.539Z,46.20
2017-05-15T17:12:14.260Z,46.60
2017-05-15T17:14:42.563Z,45.80
2017-05-15T17:17:10.910Z,45.50
2017-05-15T17:19:39.520Z,43.80
2017-05-15T17:22:07.976Z,43.20
2017-05-15T17:24:37.261Z,43.20
2017-05-15T17:27:05.585Z,43.90
2017-05-15T17:29:33.878Z,43.50
2017-05-15T17:32:02.777Z,43.20
2017-05-15T17:34:31.199Z,43.80
2017-05-15T17:36:59.491Z,43.80
2017-05-15T17:39:28.184Z,43.80
2017-05-15T17:41:57.232Z,43.50
2017-05-15T17:44:25.512Z,42.90
2017-05-15T17:46:54.188Z,42.60
2017-05-15T17:49:23.208Z,42.60
2017-05-15T17:51:51.503Z,43.40
2017-05-15T17:54:20.269Z,44.00
2017-05-15T17:56:48.572Z,43.80
2017-05-15T17:59:17.596Z,43.50
2017-05-15T18:01:45.897Z,44.00
2017-05-15T18:04:14.195Z,43.40
2017-05-15T18:06:42.814Z,43.30
2017-05-15T18:09:11.100Z,43.90
2017-05-15T18:11:40.129Z,43.90
2017-05-15T18:14:08.718Z,44.80
2017-05-15T18:16:37.008Z,44.40
2017-05-15T18:19:06.040Z,45.40
2017-05-15T18:21:34.621Z,45.60
2017-05-15T18:24:02.909Z,45.50
2017-05-15T18:26:31.991Z,45.30
2017-05-15T18:29:01.359Z,45.80
2017-05-15T18:31:29.644Z,46.40
2017-05-15T18:33:57.964Z,48.30
2017-05-15T18:36:26.644Z,48.30
2017-05-15T18:38:54.921Z,48.70
2017-05-15T18:41:23.224Z,49.20
2017-05-15T18:43:51.861Z,49.80
2017-05-15T18:46:20.172Z,49.50
2017-05-15T18:48:48.525Z,49.90
2017-05-15T18:51:17.172Z,50.10
2017-05-15T18:53:45.452Z,50.60
2017-05-15T18:56:16.583Z,50.60
2017-05-15T18:58:44.867Z,51.20
2017-05-15T19:01:13.165Z,51.40
2017-05-15T19:03:42.533Z,51.40
2017-05-15T19:06:10.821Z,52.10
2017-05-15T19:08:39.841Z,52.40
2017-05-15T19:11:08.441Z,52.70
2017-05-15T19:13:36.730Z,53.40
2017-05-15T19:16:05.028Z,53.00
2017-05-15T19:18:33.644Z,53.70
2017-05-15T19:21:01.945Z,53.80
2017-05-15T19:23:30.232Z,54.30
2017-05-15T19:25:58.804Z,54.60
2017-05-15T19:28:27.076Z,54.80
2017-05-15T19:30:55.351Z,54.90
2017-05-15T19:33:24.395Z,55.60
2017-05-15T19:35:52.693Z,55.20
2017-05-15T19:38:20.999Z,55.50
2017-05-15T19:40:49.716Z,55.50
2017-05-15T19:43:18.020Z,56.00
2017-05-15T19:45:46.345Z,56.50
2017-05-15T19:48:15.124Z,56.30
2017-05-15T19:50:43.405Z,56.30
2017-05-15T19:53:12.432Z,55.60
2017-05-15T19:55:41.016Z,55.10
2017-05-15T19:58:09.321Z,54.60
2017-05-15T20:00:37.612Z,55.20
2017-05-15T20:03:06.216Z,55.50
2017-05-15T20:05:34.506Z,55.60
2017-05-15T20:08:03.528Z,56.00
2017-05-15T20:10:32.124Z,56.30
2017-05-15T20:13:00.415Z,56.20
2017-05-15T20:15:28.714Z,56.50
2017-05-15T20:17:57.313Z,55.90
2017-05-15T20:20:28.686Z,55.90
2017-05-15T20:22:57.317Z,56.10
2017-05-15T20:25:25.773Z,56.30
2017-05-15T20:27:54.065Z,56.30
2017-05-15T20:30:22.649Z,56.30
2017-05-15T20:32:52.437Z,56.60
2017-05-15T20:35:20.749Z,57.20
2017-05-15T20:37:49.460Z,57.60
2017-05-15T20:40:18.493Z,57.90
2017-05-15T20:42:46.772Z,58.00
2017-05-15T20:45:15.377Z,57.60
2017-05-15T20:47:43.674Z,57.10
2017-05-15T20:50:11.971Z,57.50
2017-05-15T20:52:40.548Z,73.90
2017-05-15T20:55:08.832Z,59.20
2017-05-15T20:57:37.142Z,58.20
2017-05-15T21:00:05.753Z,58.30
2017-05-15T21:02:34.783Z,58.50
2017-05-15T21:05:03.072Z,58.50
2017-05-15T21:07:31.649Z,58.60
2017-05-15T21:09:59.928Z,58.80
2017-05-15T21:12:29.077Z,58.80
2017-05-15T21:14:57.673Z,58.90
2017-05-15T21:17:26.719Z,59.10
2017-05-15T21:19:55.012Z,58.70
2017-05-15T21:22:24.371Z,58.50
2017-05-15T21:24:52.653Z,58.40
2017-05-15T21:27:21.675Z,59.00
2017-05-15T21:29:50.305Z,58.50
2017-05-15T21:32:19.340Z,59.10
2017-05-15T21:34:47.631Z,59.50
2017-05-15T21:37:16.322Z,59.60
2017-05-15T21:39:45.346Z,59.40
2017-05-15T21:42:13.647Z,59.40
2017-05-15T21:44:42.298Z,60.10
2017-05-15T21:47:10.588Z,60.00
2017-05-15T21:49:39.633Z,60.20
2017-05-15T21:52:08.392Z,60.30
2017-05-15T21:54:36.692Z,60.70
2017-05-15T21:57:05.711Z,61.30
2017-05-15T21:59:34.305Z,61.30
2017-05-15T22:02:02.635Z,61.00
2017-05-15T22:04:30.935Z,61.70
2017-05-15T22:06:59.634Z,61.80
2017-05-15T22:09:28.665Z,61.70
2017-05-15T22:11:56.956Z,62.50
2017-05-15T22:14:25.625Z,62.60
2017-05-15T22:16:53.905Z,62.90
2017-05-15T22:19:22.193Z,63.00
2017-05-15T22:21:50.830Z,63.50
2017-05-15T22:24:19.164Z,63.90
2017-05-15T22:26:47.461Z,64.30
2017-05-15T22:29:16.791Z,64.40
2017-05-15T22:31:45.127Z,64.70
2017-05-15T22:34:13.416Z,64.80
2017-05-15T22:36:41.989Z,64.90
2017-05-15T22:39:10.265Z,65.00
2017-05-15T22:41:38.572Z,65.00
2017-05-15T22:44:07.139Z,64.90
2017-05-15T22:46:36.151Z,65.00
2017-05-15T22:49:04.441Z,64.90
2017-05-15T22:51:33.034Z,65.50
2017-05-15T22:54:02.067Z,65.40
2017-05-15T22:56:30.358Z,65.60
2017-05-15T22:58:58.933Z,65.70
2017-05-15T23:01:27.217Z,65.70
2017-05-15T23:03:56.235Z,65.80
2017-05-15T23:06:24.871Z,66.30
2017-05-15T23:08:53.149Z,66.60
2017-05-15T23:11:21.436Z,66.40
2017-05-15T23:13:50.034Z,66.80
2017-05-15T23:16:18.329Z,67.00
2017-05-15T23:18:46.628Z,67.20
2017-05-15T23:21:15.315Z,67.20
2017-05-15T23:23:43.608Z,67.50
2017-05-15T23:26:12.640Z,67.80
2017-05-15T23:28:41.340Z,67.30
2017-05-15T23:31:10.363Z,67.50
2017-05-15T23:33:38.641Z,67.90
2017-05-15T23:36:07.341Z,68.20
2017-05-15T23:38:35.901Z,68.00
2017-05-15T23:41:04.222Z,68.00
2017-05-15T23:43:32.835Z,67.90
2017-05-15T23:46:01.112Z,68.40
2017-05-15T23:48:30.156Z,68.50
2017-05-15T23:50:58.848Z,68.70
2017-05-15T23:53:27.132Z,69.00
2017-05-15T23:55:56.157Z,69.30
2017-05-15T23:58:24.854Z,69.40
